Архив погоды в Ейске

Метеограмма Ейск
Пятница, 20 Апреля
Время местн. Темп Ветер Видим Явления Облачность нижн/средн/верх Атм. давл. Влжн Точка росы ВНГО R Сост. почвы Tg s
Напр Скр Прв ур.ст ур.м изм
12:00 +11.1° З,С-З 3 12 10 км небо без изменений {ливневые осадки} облачно 754 756 +1.2 78% +7.5° 1 км - - - -
09:00 +10.6° С-З 8 11 10 км небо без изменений {ливневые осадки} облачно с прояснениями 753 755 +0.6 82% +7.7° 1 км - - - -
06:00 +9.8° З,С-З 7 13 10 км небо без изменений {ливневые осадки} облачно 752 754 +0.1 88% +7.9° 600 м 0 Влажная (без луж) +9° -
03:00 +9.7° З,С-З 9 12 10 км небо без изменений {ливневые осадки} облачно 752 754 -0.4 89% +8° 600 м - - - -
00:00 +10.4° З,С-З 8 12 10 км небо без изменений {ливневые осадки} облачно 752 755 -0.5 82% +7.4° 600 м - - - -
Четверг, 19 Апреля
Время местн. Темп Ветер Видим Явления Облачность нижн/средн/верх Атм. давл. Влжн Точка росы ВНГО R Сост. почвы Tg s
Напр Скр Прв ур.ст ур.м изм
21:00 +11° З,С-З 10 14 10 км слабый ливневый дождь облачно 753 755 -0.8 89% +9.3° 600 м - - - -
18:00 +11.2° З 9 11 10 км слабый ливневый дождь облачно 754 756 -0.8 87% +9.2° 600 м - - - -
15:00 +12.3° З,Ю-З 5 16 10 км слабый ливневый дождь облачно 755 757 -1.7 80% +9° 600 м - - - -
12:00 +14.9° З 9 12 10 км - облачно 756 758 -1.4 62% +7.6° 1 км - - - -
09:00 +14.1° З 6 - 10 км - облачно 758 760 -1 62% +6.9° 1 км - - - -
06:00 +11.5° З,С-З 4 - 10 км - облачно с прояснениями 759 761 -0.8 82% +8.5° 1 км - Сухая (без трещин) - -
03:00 +11.1° З 4 - 4 км дымка облачно 759 762 -1.2 95% +10.4° 600 м - - - -
00:00 +12.4° З 3 - 10 км - облачно 761 763 -1.5 85% +10° 1 км - - - -
Среда, 18 Апреля
Время местн. Темп Ветер Видим Явления Облачность нижн/средн/верх Атм. давл. Влжн Точка росы ВНГО R Сост. почвы Tg s
Напр Скр Прв ур.ст ур.м изм
21:00 +13.5° З 6 - 10 км - облачно 762 764 +0.2 73% +8.7° 1 км - - - -
18:00 +16.9° Ю-З 6 10 10 км - облачно 762 764 -1.7 44% +4.5° 1 км 0 - - -
15:00 +16.7° З 6 - 10 км - облачно 763 766 -0.9 52% +6.9° 1 км - - - -
12:00 +16.1° З 4 - 10 км - облачно 764 766 -0.6 62% +8.9° 1 км - - - -
09:00 +15.1° З,С-З 2 - 10 км - облачно 765 767 +0.4 60% +7.5° 1 км - - - -
06:00 +7.8° З 1 - 10 км - облачно 765 767 0 86% +5.6° более 2.5 км 0 Сухая (без трещин) +6° -
03:00 +11.1° З,С-З 2 - 10 км - переменная облачность 765 767 -0.3 76% +7° 1 км - - - -
00:00 +12.7° З,С-З 3 - 10 км - облачно 765 767 +0.1 69% +7.2° 1 км - - - -
Вторник, 17 Апреля
Время местн. Темп Ветер Видим Явления Облачность нижн/средн/верх Атм. давл. Влжн Точка росы ВНГО R Сост. почвы Tg s
Напр Скр Прв ур.ст ур.м изм
21:00 +10.9° З 4 - 10 км - облачно с прояснениями 765 767 +0.3 67% +5° 1 км - - - -
18:00 +14.6° З 3 - 10 км - облачно 764 767 -0.3 55% +5.8° 1 км - - - -
15:00 +18.1° З 5 - 10 км - облачно 765 767 -0.5 42% +5.1° 1 км - - - -
12:00 +15.1° З 4 - 10 км - облачно 765 767 -0.3 56% +6.5° более 2.5 км - - - -
09:00 +13.3° З 3 - 10 км - облачно с прояснениями 766 768 +0.4 57% +5° 1 км - - - -